createdAt,value
2023-02-03T00:10:15.148Z,1.47
2023-02-03T00:25:18.190Z,1.31
2023-02-03T00:40:26.596Z,1.50
2023-02-03T00:55:31.832Z,1.42
2023-02-03T01:10:35.568Z,1.33
2023-02-03T01:25:47.249Z,1.33
2023-02-03T01:41:01.940Z,1.27
2023-02-03T01:56:05.315Z,1.37
2023-02-03T02:11:07.592Z,1.43
2023-02-03T02:26:57.807Z,1.38
2023-02-03T02:42:17.571Z,1.26
2023-02-03T02:57:27.768Z,1.25
2023-02-03T03:12:34.626Z,1.35
2023-02-03T03:27:43.083Z,1.32
2023-02-03T03:42:53.933Z,0.91
2023-02-03T03:58:02.635Z,1.12
2023-02-03T04:13:08.921Z,1.20
2023-02-03T04:28:11.300Z,0.96
2023-02-03T04:43:15.035Z,1.13
2023-02-03T04:58:18.197Z,0.97
2023-02-03T05:13:20.615Z,1.12
2023-02-03T05:28:22.680Z,1.32
2023-02-03T05:43:29.809Z,1.82
2023-02-03T05:58:31.829Z,3.34
2023-02-03T06:13:37.820Z,4.95
2023-02-03T06:28:39.779Z,7.06
2023-02-03T06:43:42.338Z,8.44
2023-02-03T06:58:44.727Z,9.58
2023-02-03T07:13:46.608Z,10.73
2023-02-03T07:28:48.807Z,11.19
2023-02-03T07:43:51.358Z,12.26
2023-02-03T07:58:53.375Z,13.22
2023-02-03T08:13:55.224Z,14.04
2023-02-03T08:28:57.101Z,14.29
2023-02-03T08:44:00.140Z,13.82
2023-02-03T08:59:02.169Z,14.20
2023-02-03T09:14:05.237Z,14.48
2023-02-03T09:29:08.526Z,14.77
2023-02-03T09:44:25.869Z,13.66
2023-02-03T09:59:31.540Z,12.75
2023-02-03T14:32:08.794Z,6.63
2023-02-03T14:47:43.059Z,6.40
2023-02-03T15:03:10.449Z,6.28
2023-02-03T15:18:29.338Z,5.86
2023-02-03T15:33:33.488Z,5.59
2023-02-03T15:48:47.600Z,5.38
2023-02-03T16:03:55.189Z,4.98
2023-02-03T16:19:01.747Z,4.94
2023-02-03T16:34:34.614Z,5.02
2023-02-03T16:49:55.366Z,4.75
2023-02-03T17:04:57.232Z,4.86
2023-02-03T17:19:59.560Z,4.96
2023-02-03T17:35:01.643Z,4.55
2023-02-03T18:05:23.338Z,3.92
2023-02-03T18:20:25.272Z,3.50
2023-02-03T18:35:27.598Z,3.32
2023-02-03T18:50:29.865Z,3.27
2023-02-03T19:05:32.030Z,3.18
2023-02-03T19:20:34.461Z,3.38
2023-02-03T19:35:36.871Z,2.88
2023-02-03T19:50:40.967Z,2.91
2023-02-03T20:05:42.911Z,2.58
2023-02-03T20:20:44.772Z,2.58
2023-02-03T20:35:46.971Z,2.82
2023-02-03T20:50:50.378Z,2.78
2023-02-03T21:05:52.241Z,2.66
2023-02-03T21:20:54.053Z,2.57
2023-02-03T21:35:56.501Z,2.63
2023-02-03T21:51:26.774Z,2.87
2023-02-03T22:06:36.401Z,2.63
2023-02-03T22:21:38.432Z,2.35
2023-02-03T22:36:40.587Z,2.29
2023-02-03T22:51:42.456Z,2.24
2023-02-03T23:06:44.334Z,2.13
2023-02-03T23:21:46.208Z,1.91
2023-02-03T23:36:48.380Z,1.76
2023-02-03T23:51:50.358Z,1.93
